Time;durP1;ratioP1;P1;durP2;ratioP2;P2;SDS_P1;SDS_P2;PMS_P1;PMS_P2;Temp;Humidity;BMP_temperature;BMP_pressure;BME280_temperature;BME280_humidity;BME280_pressure;Samples;Min_cycle;Max_cycle;Signal;HPM_P1;HPM_P2
2023/11/20 00:01:11;;;;;;;4.97;2.20;;;;;;;;;;4928472;29;20432;-66
2023/11/20 00:03:36;;;;;;;5.33;2.47;;;;;;;;;;4928382;29;20044;-65
2023/11/20 00:06:01;;;;;;;6.00;2.53;;;;;;;;;;4927107;29;20035;-67
2023/11/20 00:08:27;;;;;;;4.50;2.27;;;;;;;;;;4928857;29;20023;-66
2023/11/20 00:10:52;;;;;;;6.23;2.70;;;;;;;;;;4930433;29;20027;-66
2023/11/20 00:13:17;;;;;;;6.33;2.83;;;;;;;;;;4929376;29;20487;-67
2023/11/20 00:15:43;;;;;;;7.10;3.03;;;;;;;;;;4928892;29;20429;-65
2023/11/20 00:18:08;;;;;;;8.10;3.07;;;;;;;;;;4924557;29;20023;-67
2023/11/20 00:20:33;;;;;;;7.93;3.20;;;;;;;;;;4927557;29;20031;-67
2023/11/20 00:22:59;;;;;;;6.67;3.23;;;;;;;;;;4929122;29;20115;-66
2023/11/20 00:25:24;;;;;;;7.93;3.60;;;;;;;;;;4933457;29;20028;-66
2023/11/20 00:27:50;;;;;;;9.77;4.10;;;;;;;;;;4928769;29;20042;-65
2023/11/20 00:30:16;;;;;;;6.27;3.57;;;;;;;;;;4928720;29;20024;-67
2023/11/20 00:32:41;;;;;;;7.33;3.23;;;;;;;;;;4928736;29;20028;-67
2023/11/20 00:35:06;;;;;;;7.53;3.40;;;;;;;;;;4928806;29;20028;-66
2023/11/20 00:37:32;;;;;;;8.07;2.97;;;;;;;;;;4928987;29;20032;-67
2023/11/20 00:39:57;;;;;;;7.10;3.23;;;;;;;;;;4928252;29;20119;-66
2023/11/20 00:42:22;;;;;;;5.73;2.93;;;;;;;;;;4928339;29;20079;-66
2023/11/20 00:44:47;;;;;;;7.33;3.20;;;;;;;;;;4928526;29;20549;-65
2023/11/20 00:47:13;;;;;;;7.33;2.80;;;;;;;;;;4928573;29;20034;-68
2023/11/20 00:49:38;;;;;;;6.30;2.53;;;;;;;;;;4928575;29;20023;-66
2023/11/20 00:52:03;;;;;;;6.23;2.50;;;;;;;;;;4928736;29;20051;-68
2023/11/20 00:54:29;;;;;;;6.30;2.50;;;;;;;;;;4928535;29;20317;-66
2023/11/20 00:56:54;;;;;;;6.10;2.80;;;;;;;;;;4928479;29;20436;-65
2023/11/20 00:59:19;;;;;;;5.73;2.70;;;;;;;;;;4928540;29;20089;-66
2023/11/20 01:01:44;;;;;;;7.10;2.50;;;;;;;;;;4909987;29;20035;-65
2023/11/20 01:04:10;;;;;;;6.97;2.20;;;;;;;;;;4928422;29;20183;-66
2023/11/20 01:06:40;;;;;;;7.90;2.57;;;;;;;;;;4928268;29;20024;-64
2023/11/20 01:09:06;;;;;;;5.40;2.47;;;;;;;;;;4928160;29;20503;-66
2023/11/20 01:11:32;;;;;;;5.60;2.73;;;;;;;;;;4924243;29;20016;-66
2023/11/20 01:13:59;;;;;;;5.17;2.30;;;;;;;;;;4928152;29;20050;-65
2023/11/20 01:16:24;;;;;;;4.30;2.10;;;;;;;;;;4927971;29;20023;-65
2023/11/20 01:18:51;;;;;;;4.27;1.77;;;;;;;;;;4927666;29;20029;-67
2023/11/20 01:21:17;;;;;;;4.67;2.03;;;;;;;;;;4928276;29;20320;-66
2023/11/20 01:23:42;;;;;;;4.00;1.90;;;;;;;;;;4928298;29;20480;-67
2023/11/20 01:26:07;;;;;;;4.50;2.27;;;;;;;;;;4927747;29;20412;-66
2023/11/20 01:28:32;;;;;;;4.50;1.80;;;;;;;;;;4927700;29;20392;-66
2023/11/20 01:30:58;;;;;;;5.47;1.90;;;;;;;;;;4927873;29;20357;-67
2023/11/20 01:33:23;;;;;;;4.40;1.90;;;;;;;;;;4927527;29;20035;-66
2023/11/20 01:35:48;;;;;;;6.87;1.90;;;;;;;;;;4927682;29;20031;-66
2023/11/20 01:38:13;;;;;;;4.53;2.13;;;;;;;;;;4927493;29;20027;-67
2023/11/20 01:40:39;;;;;;;4.53;1.97;;;;;;;;;;4927502;29;20449;-66
2023/11/20 01:43:05;;;;;;;4.50;2.07;;;;;;;;;;4929331;29;20047;-70
2023/11/20 01:45:30;;;;;;;4.03;1.57;;;;;;;;;;4927837;29;20054;-66
2023/11/20 01:47:55;;;;;;;3.90;1.50;;;;;;;;;;4927860;29;20035;-68
2023/11/20 01:50:21;;;;;;;5.37;1.73;;;;;;;;;;4927602;29;20022;-66
2023/11/20 01:52:47;;;;;;;3.93;1.50;;;;;;;;;;4929896;29;20032;-66
2023/11/20 01:55:13;;;;;;;5.40;1.40;;;;;;;;;;4927546;29;20023;-66
2023/11/20 01:57:40;;;;;;;5.37;1.50;;;;;;;;;;4926942;29;20036;-65
2023/11/20 02:00:09;;;;;;;2.97;1.30;;;;;;;;;;4927392;29;20051;-66
2023/11/20 02:02:37;;;;;;;4.50;1.70;;;;;;;;;;4927594;29;20464;-69
2023/11/20 02:05:02;;;;;;;5.57;1.40;;;;;;;;;;4927616;29;20038;-65
2023/11/20 02:07:27;;;;;;;3.73;1.33;;;;;;;;;;4927577;29;20428;-67
2023/11/20 02:09:53;;;;;;;3.83;1.47;;;;;;;;;;4927252;29;20465;-68
2023/11/20 02:12:18;;;;;;;3.47;1.47;;;;;;;;;;4927645;29;20488;-67
2023/11/20 02:14:43;;;;;;;3.73;1.10;;;;;;;;;;4924167;29;20028;-67
2023/11/20 02:17:08;;;;;;;4.40;1.73;;;;;;;;;;4927278;29;20269;-67
2023/11/20 02:19:34;;;;;;;2.23;0.93;;;;;;;;;;4926863;29;20020;-69
2023/11/20 02:21:59;;;;;;;0.20;0.20;;;;;;;;;;4927448;29;20532;-74
2023/11/20 02:24:26;;;;;;;0.10;0.10;;;;;;;;;;4921835;29;20477;-67
2023/11/20 02:27:08;;;;;;;0.00;0.00;;;;;;;;;;4926870;29;20075;-68
2023/11/20 02:29:33;;;;;;;;;;;;;;;;;;4928998;29;20043;-72
2023/11/20 02:31:59;;;;;;;0.00;0.00;;;;;;;;;;4929318;28;19926;-67
2023/11/20 02:34:24;;;;;;;0.10;0.10;;;;;;;;;;4932546;29;20026;-68
2023/11/20 02:36:49;;;;;;;0.10;0.10;;;;;;;;;;4926950;29;20155;-71
2023/11/20 02:39:15;;;;;;;2.83;0.43;;;;;;;;;;4927002;29;20056;-69
2023/11/20 02:41:40;;;;;;;0.23;0.23;;;;;;;;;;4927189;29;20385;-68
2023/11/20 02:44:06;;;;;;;0.10;0.10;;;;;;;;;;4926154;29;20032;-69
2023/11/20 02:46:31;;;;;;;0.10;0.10;;;;;;;;;;4927199;29;20035;-67
2023/11/20 02:48:56;;;;;;;0.03;0.03;;;;;;;;;;4928127;29;20032;-68
2023/11/20 02:51:21;;;;;;;0.10;0.10;;;;;;;;;;4930711;29;20405;-68
2023/11/20 02:53:47;;;;;;;0.00;0.00;;;;;;;;;;4930518;29;20031;-67
2023/11/20 02:56:12;;;;;;;0.10;0.10;;;;;;;;;;4930094;29;20054;-67
2023/11/20 02:58:37;;;;;;;0.10;0.10;;;;;;;;;;4930385;29;20031;-67
2023/11/20 03:01:03;;;;;;;0.13;0.10;;;;;;;;;;4926585;29;20111;-75
2023/11/20 03:03:28;;;;;;;0.10;0.10;;;;;;;;;;4930267;29;20110;-70
2023/11/20 03:05:53;;;;;;;0.00;0.00;;;;;;;;;;4927446;29;20485;-67
2023/11/20 03:08:19;;;;;;;0.20;0.20;;;;;;;;;;4930319;29;20728;-70
2023/11/20 03:10:44;;;;;;;0.20;0.20;;;;;;;;;;4930086;29;20511;-67
2023/11/20 03:13:10;;;;;;;0.10;0.10;;;;;;;;;;4930542;29;20381;-67
2023/11/20 03:15:37;;;;;;;0.10;0.03;;;;;;;;;;4930042;29;20016;-67
2023/11/20 03:18:03;;;;;;;0.00;0.00;;;;;;;;;;4930062;29;20023;-66
2023/11/20 03:20:28;;;;;;;0.30;0.30;;;;;;;;;;4930024;29;20111;-66
2023/11/20 03:22:53;;;;;;;0.10;0.10;;;;;;;;;;4929978;29;20114;-67
2023/11/20 03:25:18;;;;;;;0.27;0.27;;;;;;;;;;4929677;29;20071;-68
2023/11/20 03:27:44;;;;;;;0.10;0.10;;;;;;;;;;4930353;29;20031;-66
2023/11/20 03:30:09;;;;;;;0.10;0.10;;;;;;;;;;4929937;29;20024;-66
2023/11/20 03:32:36;;;;;;;0.10;0.10;;;;;;;;;;4929893;29;20023;-66
2023/11/20 03:35:01;;;;;;;0.60;0.30;;;;;;;;;;4929388;29;20012;-68
2023/11/20 03:37:26;;;;;;;0.00;0.00;;;;;;;;;;4931221;29;20031;-66
2023/11/20 03:39:52;;;;;;;0.03;0.03;;;;;;;;;;4930487;29;20020;-67
2023/11/20 03:42:17;;;;;;;0.17;0.17;;;;;;;;;;4929382;29;20679;-67
2023/11/20 03:44:43;;;;;;;0.00;0.00;;;;;;;;;;4929558;29;20034;-66
2023/11/20 03:47:08;;;;;;;0.10;0.10;;;;;;;;;;4929695;29;20023;-64
2023/11/20 03:49:33;;;;;;;0.57;0.23;;;;;;;;;;4929741;29;20720;-65
2023/11/20 03:51:58;;;;;;;0.10;0.10;;;;;;;;;;4929414;29;20570;-66
2023/11/20 03:54:23;;;;;;;0.10;0.10;;;;;;;;;;4929545;29;20373;-66
2023/11/20 03:56:49;;;;;;;0.10;0.10;;;;;;;;;;4929215;29;20063;-66
2023/11/20 03:59:15;;;;;;;0.20;0.20;;;;;;;;;;4929517;29;20070;-66
2023/11/20 04:01:41;;;;;;;0.10;0.10;;;;;;;;;;4929459;29;20028;-66
2023/11/20 04:04:08;;;;;;;0.57;0.33;;;;;;;;;;4929076;29;20027;-65
2023/11/20 04:06:33;;;;;;;0.00;0.00;;;;;;;;;;4929283;29;20030;-65
2023/11/20 04:08:58;;;;;;;0.00;0.00;;;;;;;;;;4929021;29;20461;-66
2023/11/20 04:11:23;;;;;;;0.10;0.10;;;;;;;;;;4929585;29;20417;-66
2023/11/20 04:13:49;;;;;;;0.00;0.00;;;;;;;;;;4929171;29;20485;-66
2023/11/20 04:16:14;;;;;;;0.17;0.17;;;;;;;;;;4929253;29;20485;-65
2023/11/20 04:18:39;;;;;;;0.10;0.10;;;;;;;;;;4929088;29;20109;-66
2023/11/20 04:21:05;;;;;;;0.10;0.10;;;;;;;;;;4924517;29;20219;-67
2023/11/20 04:23:31;;;;;;;0.00;0.00;;;;;;;;;;4925933;29;20433;-67
2023/11/20 04:25:56;;;;;;;0.00;0.00;;;;;;;;;;4928839;29;20035;-68
2023/11/20 04:28:22;;;;;;;0.10;0.10;;;;;;;;;;4928907;29;20104;-65
2023/11/20 04:30:47;;;;;;;0.10;0.10;;;;;;;;;;4933545;29;20015;-68
2023/11/20 04:33:12;;;;;;;0.00;0.00;;;;;;;;;;4930888;29;20019;-68
2023/11/20 04:35:38;;;;;;;0.10;0.10;;;;;;;;;;4929943;29;20473;-66
2023/11/20 04:38:03;;;;;;;0.00;0.00;;;;;;;;;;4911340;29;20039;-72
2023/11/20 04:40:28;;;;;;;0.00;0.00;;;;;;;;;;4930549;29;20055;-74
2023/11/20 04:42:53;;;;;;;0.60;0.20;;;;;;;;;;4928343;29;20087;-67
2023/11/20 04:45:19;;;;;;;0.10;0.10;;;;;;;;;;4928333;29;20074;-66
2023/11/20 04:47:44;;;;;;;0.00;0.00;;;;;;;;;;4928886;29;20115;-67
2023/11/20 04:50:09;;;;;;;0.10;0.10;;;;;;;;;;4928360;29;20370;-71
2023/11/20 04:52:36;;;;;;;0.10;0.10;;;;;;;;;;4928437;29;20095;-67
2023/11/20 04:55:03;;;;;;;0.10;0.10;;;;;;;;;;4928513;29;20015;-69
2023/11/20 04:57:28;;;;;;;0.10;0.10;;;;;;;;;;4928425;29;20118;-68
2023/11/20 04:59:57;;;;;;;0.00;0.00;;;;;;;;;;4924364;29;20426;-68
2023/11/20 05:02:25;;;;;;;0.20;0.20;;;;;;;;;;4928314;29;20393;-67
2023/11/20 05:04:50;;;;;;;0.00;0.00;;;;;;;;;;4928340;29;20024;-67
2023/11/20 05:07:15;;;;;;;0.27;0.13;;;;;;;;;;4928327;29;20582;-67
2023/11/20 05:09:40;;;;;;;0.70;0.53;;;;;;;;;;4927993;29;20039;-67
2023/11/20 05:12:07;;;;;;;0.00;0.00;;;;;;;;;;4927538;29;20019;-68
2023/11/20 05:14:32;;;;;;;0.00;0.00;;;;;;;;;;4924268;29;20464;-65
2023/11/20 05:16:58;;;;;;;0.00;0.00;;;;;;;;;;4927852;29;20086;-66
2023/11/20 05:19:23;;;;;;;0.00;0.00;;;;;;;;;;4928291;29;20512;-67
2023/11/20 05:21:48;;;;;;;0.30;0.30;;;;;;;;;;4927864;29;20508;-68
2023/11/20 05:24:14;;;;;;;0.00;0.00;;;;;;;;;;4927971;29;20481;-73
2023/11/20 05:26:39;;;;;;;0.00;0.00;;;;;;;;;;4928349;29;20066;-68
2023/11/20 05:29:05;;;;;;;2.37;1.03;;;;;;;;;;4928196;29;20015;-68
2023/11/20 05:31:31;;;;;;;0.10;0.10;;;;;;;;;;4927829;29;20482;-65
2023/11/20 05:33:56;;;;;;;0.07;0.07;;;;;;;;;;4929515;29;20030;-66
2023/11/20 05:36:21;;;;;;;0.20;0.20;;;;;;;;;;4927302;29;20007;-67
2023/11/20 05:38:47;;;;;;;0.10;0.10;;;;;;;;;;4927387;29;20038;-66
2023/11/20 05:41:12;;;;;;;0.07;0.07;;;;;;;;;;4926049;29;20020;-66
2023/11/20 05:43:39;;;;;;;0.30;0.20;;;;;;;;;;4927149;29;20051;-66
2023/11/20 05:46:04;;;;;;;0.00;0.00;;;;;;;;;;4925767;29;20027;-65
2023/11/20 05:48:30;;;;;;;0.23;0.20;;;;;;;;;;4926637;29;20020;-68
2023/11/20 05:50:55;;;;;;;0.10;0.10;;;;;;;;;;4925208;29;20024;-65
2023/11/20 05:53:20;;;;;;;0.00;0.00;;;;;;;;;;4925171;29;20015;-66
2023/11/20 05:55:47;;;;;;;0.00;0.00;;;;;;;;;;4926109;29;20370;-66
2023/11/20 05:58:12;;;;;;;0.20;0.20;;;;;;;;;;4926745;29;20034;-66
2023/11/20 06:00:37;;;;;;;0.30;0.30;;;;;;;;;;4926254;29;20028;-66
2023/11/20 06:03:02;;;;;;;0.10;0.10;;;;;;;;;;4923220;29;20074;-67
2023/11/20 06:05:28;;;;;;;0.10;0.10;;;;;;;;;;4927198;29;20028;-67
2023/11/20 06:07:53;;;;;;;0.30;0.30;;;;;;;;;;4924082;29;20047;-66
2023/11/20 06:10:18;;;;;;;0.10;0.10;;;;;;;;;;4922188;29;20035;-68
2023/11/20 06:12:44;;;;;;;0.10;0.10;;;;;;;;;;4925707;29;20111;-67
2023/11/20 06:15:09;;;;;;;0.10;0.10;;;;;;;;;;4926961;29;20070;-67
2023/11/20 06:17:36;;;;;;;0.00;0.00;;;;;;;;;;4926573;29;20027;-65
2023/11/20 06:20:03;;;;;;;0.00;0.00;;;;;;;;;;4921259;29;20031;-65
2023/11/20 06:22:28;;;;;;;0.30;0.30;;;;;;;;;;4927104;29;20048;-64
2023/11/20 06:24:53;;;;;;;0.23;0.23;;;;;;;;;;4929442;29;20059;-65
2023/11/20 06:27:19;;;;;;;0.20;0.20;;;;;;;;;;4931137;29;20059;-66
2023/11/20 06:29:46;;;;;;;1.00;0.43;;;;;;;;;;4930945;29;20497;-67
2023/11/20 06:32:11;;;;;;;0.00;0.00;;;;;;;;;;4931072;29;20532;-65
2023/11/20 06:34:36;;;;;;;0.20;0.20;;;;;;;;;;4930611;29;20028;-66
2023/11/20 06:37:03;;;;;;;0.40;0.37;;;;;;;;;;4931215;29;20023;-65
2023/11/20 06:39:28;;;;;;;0.20;0.20;;;;;;;;;;4932420;29;20019;-65
2023/11/20 06:41:53;;;;;;;0.40;0.30;;;;;;;;;;4930531;29;20703;-65
2023/11/20 06:44:18;;;;;;;0.10;0.10;;;;;;;;;;4931887;29;20634;-66
2023/11/20 06:46:44;;;;;;;0.10;0.10;;;;;;;;;;4930422;29;20032;-66
2023/11/20 06:49:09;;;;;;;0.10;0.10;;;;;;;;;;4930691;29;20027;-67
2023/11/20 06:51:34;;;;;;;2.03;0.37;;;;;;;;;;4930700;29;20020;-71
2023/11/20 06:54:00;;;;;;;0.53;0.50;;;;;;;;;;4930369;29;20246;-69
2023/11/20 06:56:26;;;;;;;0.10;0.10;;;;;;;;;;4931666;29;20022;-68
2023/11/20 06:58:51;;;;;;;0.00;0.00;;;;;;;;;;4930452;29;20453;-66
2023/11/20 07:01:20;;;;;;;0.10;0.10;;;;;;;;;;4930622;29;20035;-65
2023/11/20 07:03:45;;;;;;;0.10;0.10;;;;;;;;;;4924608;29;20583;-64
2023/11/20 07:06:12;;;;;;;0.10;0.10;;;;;;;;;;4930539;29;20332;-67
2023/11/20 07:08:37;;;;;;;0.10;0.10;;;;;;;;;;4928646;29;20504;-68
2023/11/20 07:11:02;;;;;;;0.10;0.10;;;;;;;;;;4930204;29;20056;-66
2023/11/20 07:13:28;;;;;;;0.10;0.10;;;;;;;;;;4930392;29;20016;-65
2023/11/20 07:15:53;;;;;;;0.17;0.17;;;;;;;;;;4931724;29;20377;-66
2023/11/20 07:18:18;;;;;;;0.37;0.37;;;;;;;;;;4930039;29;20499;-66
2023/11/20 07:20:44;;;;;;;0.20;0.20;;;;;;;;;;4930240;29;20031;-67
2023/11/20 07:23:09;;;;;;;0.63;0.40;;;;;;;;;;4930044;29;20461;-75
2023/11/20 07:25:34;;;;;;;0.10;0.10;;;;;;;;;;4930300;29;20023;-67
2023/11/20 07:28:02;;;;;;;0.20;0.20;;;;;;;;;;4930214;29;20055;-70
2023/11/20 07:30:30;;;;;;;0.30;0.30;;;;;;;;;;4926232;29;20058;-65
2023/11/20 07:32:55;;;;;;;0.10;0.10;;;;;;;;;;4929457;29;20317;-68
2023/11/20 07:35:20;;;;;;;0.20;0.20;;;;;;;;;;4929360;29;20030;-67
2023/11/20 07:37:45;;;;;;;0.20;0.20;;;;;;;;;;4929631;29;20019;-65
2023/11/20 07:40:11;;;;;;;0.10;0.10;;;;;;;;;;4929661;29;20476;-69
2023/11/20 07:42:37;;;;;;;0.30;0.30;;;;;;;;;;4929551;29;20476;-69
2023/11/20 07:45:02;;;;;;;0.10;0.10;;;;;;;;;;4931982;29;20105;-67
2023/11/20 07:47:27;;;;;;;0.17;0.17;;;;;;;;;;4929380;29;20053;-67
2023/11/20 07:49:54;;;;;;;0.30;0.20;;;;;;;;;;4929123;29;20043;-69
2023/11/20 07:52:21;;;;;;;0.10;0.10;;;;;;;;;;4929560;29;20012;-67
2023/11/20 07:54:46;;;;;;;0.20;0.20;;;;;;;;;;4929899;29;20075;-65
2023/11/20 07:57:13;;;;;;;0.60;0.60;;;;;;;;;;4929237;29;20504;-65
2023/11/20 07:59:39;;;;;;;0.73;0.30;;;;;;;;;;4929106;29;20012;-64
2023/11/20 08:02:04;;;;;;;0.10;0.10;;;;;;;;;;4929412;29;20027;-65
2023/11/20 08:04:30;;;;;;;0.20;0.20;;;;;;;;;;4929081;29;20027;-65
2023/11/20 08:06:56;;;;;;;0.10;0.10;;;;;;;;;;4928844;29;20070;-65
2023/11/20 08:09:21;;;;;;;0.10;0.10;;;;;;;;;;4929278;29;20027;-64
2023/11/20 08:11:46;;;;;;;0.30;0.30;;;;;;;;;;4928955;29;20102;-65
2023/11/20 08:14:15;;;;;;;0.10;0.10;;;;;;;;;;4929189;29;20027;-65
2023/11/20 08:16:40;;;;;;;0.10;0.10;;;;;;;;;;4929136;29;20019;-65
2023/11/20 08:19:06;;;;;;;0.10;0.10;;;;;;;;;;4928994;29;20071;-65
2023/11/20 08:21:31;;;;;;;0.10;0.10;;;;;;;;;;4929036;29;20065;-66
2023/11/20 08:23:56;;;;;;;1.87;0.30;;;;;;;;;;4928589;29;20110;-65
2023/11/20 08:26:21;;;;;;;0.10;0.10;;;;;;;;;;4929041;29;20465;-65
2023/11/20 08:28:47;;;;;;;0.20;0.20;;;;;;;;;;4923699;29;20563;-66
2023/11/20 08:31:13;;;;;;;0.40;0.30;;;;;;;;;;4928894;29;20419;-65
2023/11/20 08:33:38;;;;;;;0.20;0.17;;;;;;;;;;4928450;29;20016;-65
2023/11/20 08:36:06;;;;;;;0.10;0.10;;;;;;;;;;4928577;29;20022;-64
2023/11/20 08:38:32;;;;;;;0.10;0.10;;;;;;;;;;4928469;29;20600;-65
2023/11/20 08:40:58;;;;;;;0.03;0.03;;;;;;;;;;4928901;29;20023;-65
2023/11/20 08:43:23;;;;;;;0.10;0.10;;;;;;;;;;4928577;29;20061;-64
2023/11/20 08:45:49;;;;;;;0.10;0.10;;;;;;;;;;4933096;29;20557;-64
2023/11/20 08:48:15;;;;;;;0.10;0.10;;;;;;;;;;4931248;29;20023;-67
2023/11/20 08:50:40;;;;;;;0.10;0.10;;;;;;;;;;4928419;29;20567;-65
2023/11/20 08:53:05;;;;;;;0.20;0.20;;;;;;;;;;4928802;29;20023;-65
2023/11/20 08:55:31;;;;;;;0.17;0.17;;;;;;;;;;4923153;29;20094;-65
2023/11/20 08:57:57;;;;;;;0.10;0.10;;;;;;;;;;4928045;29;20112;-64
2023/11/20 09:00:24;;;;;;;0.10;0.10;;;;;;;;;;4928593;29;20260;-65
2023/11/20 09:02:49;;;;;;;0.20;0.20;;;;;;;;;;4928465;29;20511;-64
2023/11/20 09:05:14;;;;;;;0.20;0.20;;;;;;;;;;4928444;29;20408;-66
2023/11/20 09:07:43;;;;;;;0.10;0.10;;;;;;;;;;4928305;29;20556;-67
2023/11/20 09:10:12;;;;;;;0.10;0.10;;;;;;;;;;4927989;29;20016;-67
2023/11/20 09:12:37;;;;;;;0.20;0.20;;;;;;;;;;4928194;29;20011;-67
2023/11/20 09:15:04;;;;;;;0.03;0.03;;;;;;;;;;4928088;29;20044;-68
2023/11/20 09:17:30;;;;;;;0.40;0.37;;;;;;;;;;4928284;29;20023;-66
2023/11/20 09:19:56;;;;;;;0.10;0.10;;;;;;;;;;4927905;29;20420;-69
2023/11/20 09:22:21;;;;;;;0.30;0.30;;;;;;;;;;4928074;29;20105;-67
2023/11/20 09:24:46;;;;;;;0.10;0.10;;;;;;;;;;4927824;29;20020;-67
2023/11/20 09:27:13;;;;;;;0.67;0.30;;;;;;;;;;4927922;29;20024;-65
2023/11/20 09:29:39;;;;;;;0.10;0.10;;;;;;;;;;4927536;29;20051;-66
2023/11/20 09:32:04;;;;;;;0.10;0.10;;;;;;;;;;4927627;29;20098;-72
2023/11/20 09:34:30;;;;;;;0.10;0.10;;;;;;;;;;4927966;29;20024;-67
2023/11/20 09:36:55;;;;;;;0.40;0.20;;;;;;;;;;4927658;29;20066;-67
2023/11/20 09:39:20;;;;;;;0.40;0.27;;;;;;;;;;4927799;29;20043;-68
2023/11/20 09:41:46;;;;;;;1.30;0.73;;;;;;;;;;4927800;29;20098;-68
2023/11/20 09:44:12;;;;;;;0.23;0.23;;;;;;;;;;4927592;29;20124;-65
2023/11/20 09:46:40;;;;;;;1.50;0.20;;;;;;;;;;4927614;29;20474;-69
2023/11/20 09:49:08;;;;;;;0.30;0.30;;;;;;;;;;4929914;29;20024;-69
2023/11/20 09:51:35;;;;;;;1.63;1.13;;;;;;;;;;4927522;29;20058;-68
2023/11/20 09:54:03;;;;;;;3.40;1.47;;;;;;;;;;4927608;29;20024;-66
2023/11/20 09:56:31;;;;;;;0.30;0.30;;;;;;;;;;4927388;29;20484;-70
2023/11/20 09:58:57;;;;;;;8.97;0.93;;;;;;;;;;4927852;29;20024;-68
2023/11/20 10:01:23;;;;;;;0.30;0.23;;;;;;;;;;4927746;29;20078;-66
2023/11/20 10:03:51;;;;;;;17.23;3.73;;;;;;;;;;4927470;29;20499;-70
2023/11/20 10:06:19;;;;;;;17.37;3.73;;;;;;;;;;4925970;29;20498;-68
2023/11/20 10:08:45;;;;;;;14.63;3.23;;;;;;;;;;4927373;29;20440;-67
2023/11/20 10:11:11;;;;;;;17.23;3.70;;;;;;;;;;4927466;29;20023;-71
2023/11/20 10:13:36;;;;;;;12.37;3.20;;;;;;;;;;4927350;29;20039;-65
2023/11/20 10:16:04;;;;;;;15.93;3.90;;;;;;;;;;4927732;29;20020;-66
2023/11/20 10:18:29;;;;;;;10.60;3.47;;;;;;;;;;4927292;29;20023;-66
2023/11/20 10:20:57;;;;;;;13.07;3.20;;;;;;;;;;4927069;29;20112;-66
2023/11/20 10:23:22;;;;;;;14.17;2.80;;;;;;;;;;4927192;29;20102;-67
2023/11/20 10:25:48;;;;;;;17.37;3.83;;;;;;;;;;4927495;29;20525;-67
2023/11/20 10:28:14;;;;;;;9.67;3.17;;;;;;;;;;4922032;29;20118;-66
2023/11/20 10:30:43;;;;;;;13.40;3.40;;;;;;;;;;4926628;29;20187;-67
2023/11/20 10:33:15;;;;;;;15.27;3.03;;;;;;;;;;4927049;29;20012;-66
2023/11/20 10:35:41;;;;;;;21.00;3.43;;;;;;;;;;4927288;29;20635;-67
2023/11/20 10:38:07;;;;;;;13.30;2.90;;;;;;;;;;4927501;29;20155;-68
2023/11/20 10:40:32;;;;;;;14.13;2.50;;;;;;;;;;4927524;29;20047;-66
2023/11/20 10:43:00;;;;;;;16.80;2.80;;;;;;;;;;4928838;29;20108;-66
2023/11/20 10:45:25;;;;;;;15.83;3.60;;;;;;;;;;4926964;29;20020;-67
2023/11/20 10:47:51;;;;;;;14.00;3.40;;;;;;;;;;4922574;29;20024;-66
2023/11/20 10:50:17;;;;;;;10.03;2.30;;;;;;;;;;4927207;29;20082;-66
2023/11/20 10:52:44;;;;;;;9.90;2.90;;;;;;;;;;4926961;29;20253;-66
2023/11/20 10:55:11;;;;;;;6.10;2.50;;;;;;;;;;4930075;29;20070;-68
2023/11/20 10:57:38;;;;;;;10.30;3.00;;;;;;;;;;4926506;29;20211;-66
2023/11/20 11:00:10;;;;;;;8.47;2.47;;;;;;;;;;4926818;29;20015;-66
2023/11/20 11:02:36;;;;;;;16.93;3.60;;;;;;;;;;4926948;29;20585;-66
2023/11/20 11:05:06;;;;;;;10.47;3.40;;;;;;;;;;4926933;29;20420;-66
2023/11/20 11:07:33;;;;;;;19.37;3.93;;;;;;;;;;4926975;29;20020;-66
2023/11/20 11:09:59;;;;;;;14.70;4.00;;;;;;;;;;4927908;29;20020;-65
2023/11/20 11:12:26;;;;;;;11.47;3.87;;;;;;;;;;4930336;29;20031;-70
2023/11/20 11:14:52;;;;;;;10.30;3.20;;;;;;;;;;4930178;29;20019;-66
2023/11/20 11:17:21;;;;;;;14.00;4.40;;;;;;;;;;4930268;29;20107;-66
2023/11/20 11:19:51;;;;;;;15.40;4.47;;;;;;;;;;4929865;29;20086;-68
2023/11/20 11:22:35;;;;;;;16.33;4.83;;;;;;;;;;4929910;29;20110;-67
2023/11/20 11:25:02;;;;;;;18.87;4.87;;;;;;;;;;4926687;29;20020;-66
2023/11/20 11:27:32;;;;;;;14.00;3.93;;;;;;;;;;4929865;29;20098;-66
2023/11/20 11:29:58;;;;;;;13.73;4.33;;;;;;;;;;4928888;29;20055;-66
2023/11/20 11:32:26;;;;;;;13.13;3.40;;;;;;;;;;4927366;29;20039;-66
2023/11/20 11:34:58;;;;;;;18.37;4.50;;;;;;;;;;4929811;29;20042;-68
2023/11/20 11:37:43;;;;;;;15.80;3.40;;;;;;;;;;4929738;29;20051;-66
2023/11/20 11:40:17;;;;;;;19.43;4.33;;;;;;;;;;4932136;29;20436;-67
2023/11/20 11:42:45;;;;;;;19.07;3.97;;;;;;;;;;4926553;29;20129;-68
2023/11/20 11:45:14;;;;;;;19.43;4.00;;;;;;;;;;4929546;29;20055;-66
2023/11/20 11:47:40;;;;;;;20.43;4.27;;;;;;;;;;4929623;29;20377;-68
2023/11/20 11:50:06;;;;;;;18.83;3.80;;;;;;;;;;4929281;29;20504;-71
2023/11/20 11:52:33;;;;;;;16.10;3.70;;;;;;;;;;4929612;29;20056;-67
2023/11/20 11:55:24;;;;;;;17.70;4.10;;;;;;;;;;4929395;29;20079;-66
2023/11/20 11:57:55;;;;;;;13.63;3.70;;;;;;;;;;4929234;29;20035;-66
2023/11/20 12:00:21;;;;;;;14.45;3.65;;;;;;;;;;4929333;29;20028;-68
2023/11/20 12:02:49;;;;;;;17.63;3.73;;;;;;;;;;4929503;29;20086;-67
2023/11/20 12:05:15;;;;;;;26.60;4.47;;;;;;;;;;4929073;29;20030;-65
2023/11/20 12:07:40;;;;;;;16.40;3.77;;;;;;;;;;4929243;29;20103;-66
2023/11/20 12:10:12;;;;;;;19.47;3.50;;;;;;;;;;4929469;29;20512;-66
2023/11/20 12:12:47;;;;;;;16.53;2.97;;;;;;;;;;4929199;29;20098;-70
2023/11/20 12:15:33;;;;;;;24.90;4.10;;;;;;;;;;4928826;29;20019;-68
2023/11/20 12:17:59;;;;;;;18.53;3.40;;;;;;;;;;4929227;29;20377;-68
2023/11/20 12:20:25;;;;;;;14.93;3.20;;;;;;;;;;4929107;29;20023;-67
2023/11/20 12:22:50;;;;;;;14.00;2.87;;;;;;;;;;4927761;29;20031;-66
2023/11/20 12:25:16;;;;;;;14.83;3.13;;;;;;;;;;4928884;29;20158;-68
2023/11/20 12:27:42;;;;;;;13.50;3.10;;;;;;;;;;4928943;29;20051;-66
2023/11/20 12:30:08;;;;;;;18.23;3.43;;;;;;;;;;4925173;29;20027;-70
2023/11/20 12:32:34;;;;;;;14.53;3.10;;;;;;;;;;4928677;29;20336;-66
2023/11/20 12:34:59;;;;;;;14.47;3.30;;;;;;;;;;4928948;29;20107;-66
2023/11/20 12:37:25;;;;;;;14.47;3.13;;;;;;;;;;4924111;29;20023;-67
2023/11/20 12:39:50;;;;;;;20.23;3.50;;;;;;;;;;4928385;29;20464;-68
2023/11/20 12:42:18;;;;;;;12.87;2.87;;;;;;;;;;4934153;29;20058;-68
2023/11/20 12:44:44;;;;;;;13.50;3.53;;;;;;;;;;4928411;29;20099;-67
2023/11/20 12:47:09;;;;;;;12.13;3.50;;;;;;;;;;4928912;29;20114;-63
2023/11/20 12:49:34;;;;;;;15.93;3.30;;;;;;;;;;4927203;29;20024;-63
2023/11/20 12:52:00;;;;;;;15.80;3.17;;;;;;;;;;4928357;29;20019;-63
2023/11/20 12:54:26;;;;;;;18.87;3.53;;;;;;;;;;4928624;29;20301;-62
2023/11/20 12:56:53;;;;;;;16.03;3.20;;;;;;;;;;4927985;29;20016;-63
2023/11/20 12:59:20;;;;;;;17.80;3.50;;;;;;;;;;4928260;29;20416;-63
2023/11/20 13:01:46;;;;;;;19.13;3.73;;;;;;;;;;4928375;29;20127;-63
2023/11/20 13:04:12;;;;;;;13.27;3.30;;;;;;;;;;4928028;29;20102;-64
2023/11/20 13:06:38;;;;;;;14.93;2.70;;;;;;;;;;4928024;29;20391;-64
2023/11/20 13:09:06;;;;;;;16.33;3.13;;;;;;;;;;4928098;29;20019;-64
2023/11/20 13:11:33;;;;;;;16.40;2.90;;;;;;;;;;4928097;29;20351;-64
2023/11/20 13:13:58;;;;;;;11.20;2.83;;;;;;;;;;4928032;29;20019;-63
2023/11/20 13:16:24;;;;;;;11.27;2.47;;;;;;;;;;4927679;29;20381;-63
2023/11/20 13:18:51;;;;;;;16.13;2.90;;;;;;;;;;4927866;29;20078;-64
2023/11/20 13:21:23;;;;;;;13.77;3.03;;;;;;;;;;4927830;29;20027;-65
2023/11/20 13:24:02;;;;;;;15.07;2.77;;;;;;;;;;4927884;29;20042;-64
2023/11/20 13:26:28;;;;;;;17.57;3.30;;;;;;;;;;4927815;29;20020;-64
2023/11/20 13:28:54;;;;;;;13.30;2.70;;;;;;;;;;4927697;29;20051;-63
2023/11/20 13:31:30;;;;;;;14.73;2.87;;;;;;;;;;4927686;29;20027;-64
2023/11/20 13:33:55;;;;;;;17.50;2.80;;;;;;;;;;4927364;29;20023;-64
2023/11/20 13:36:21;;;;;;;16.43;3.00;;;;;;;;;;4928978;29;20030;-63
2023/11/20 13:38:47;;;;;;;17.20;3.10;;;;;;;;;;4927432;29;20024;-64
2023/11/20 13:41:13;;;;;;;18.03;3.40;;;;;;;;;;4927509;29;20039;-64
2023/11/20 13:43:40;;;;;;;20.40;4.53;;;;;;;;;;4927526;29;20501;-64
2023/11/20 13:46:05;;;;;;;16.07;3.20;;;;;;;;;;4923945;29;20012;-63
2023/11/20 13:48:31;;;;;;;19.20;3.20;;;;;;;;;;4927226;29;20034;-64
2023/11/20 13:50:58;;;;;;;18.57;3.63;;;;;;;;;;4927435;29;20015;-64
2023/11/20 13:53:24;;;;;;;12.33;3.07;;;;;;;;;;4927751;29;20469;-64
2023/11/20 13:55:50;;;;;;;15.93;2.87;;;;;;;;;;4927538;29;20024;-64
2023/11/20 13:58:22;;;;;;;16.57;3.30;;;;;;;;;;4927345;29;20385;-64
2023/11/20 14:00:47;;;;;;;17.27;3.77;;;;;;;;;;4927623;29;20496;-63
2023/11/20 14:03:15;;;;;;;15.67;4.20;;;;;;;;;;4927173;29;20019;-64
2023/11/20 14:05:41;;;;;;;15.73;3.30;;;;;;;;;;4927156;29;20127;-64
2023/11/20 14:08:07;;;;;;;16.23;3.63;;;;;;;;;;4927281;29;20110;-63
2023/11/20 14:10:32;;;;;;;18.87;3.50;;;;;;;;;;4927281;29;20078;-64
2023/11/20 14:12:58;;;;;;;14.17;3.60;;;;;;;;;;4927277;29;20357;-63
2023/11/20 14:15:25;;;;;;;19.63;3.57;;;;;;;;;;4927261;29;20019;-64
2023/11/20 14:17:55;;;;;;;16.07;3.07;;;;;;;;;;4927289;29;20032;-63
2023/11/20 14:20:20;;;;;;;18.47;3.13;;;;;;;;;;4927202;29;20314;-64
2023/11/20 14:22:45;;;;;;;19.57;3.67;;;;;;;;;;4927432;29;20052;-64
2023/11/20 14:25:13;;;;;;;12.17;2.90;;;;;;;;;;4927166;29;20075;-64
2023/11/20 14:27:39;;;;;;;13.53;3.30;;;;;;;;;;4927304;29;20024;-64
2023/11/20 14:30:11;;;;;;;21.30;3.50;;;;;;;;;;4927099;29;20015;-65
2023/11/20 14:32:36;;;;;;;19.87;3.37;;;;;;;;;;4927450;29;20012;-63